sensor_id;sensor_type;location;lat;lon;timestamp;temperature;humidity
8261;DHT22;64115;50.170;8.242;2023-05-10T00:00:09;11.70;99.90
8261;DHT22;64115;50.170;8.242;2023-05-10T00:02:37;11.70;99.90
8261;DHT22;64115;50.170;8.242;2023-05-10T00:05:05;11.70;99.90
8261;DHT22;64115;50.170;8.242;2023-05-10T00:07:32;11.70;99.90
8261;DHT22;64115;50.170;8.242;2023-05-10T00:10:00;11.70;99.90
8261;DHT22;64115;50.170;8.242;2023-05-10T00:12:29;11.70;99.90
8261;DHT22;64115;50.170;8.242;2023-05-10T00:14:57;11.70;99.90
8261;DHT22;64115;50.170;8.242;2023-05-10T00:17:24;11.70;99.90
8261;DHT22;64115;50.170;8.242;2023-05-10T00:19:51;11.70;99.90
8261;DHT22;64115;50.170;8.242;2023-05-10T00:22:18;11.70;99.90
8261;DHT22;64115;50.170;8.242;2023-05-10T00:24:47;11.60;99.90
8261;DHT22;64115;50.170;8.242;2023-05-10T00:27:15;11.60;99.90
8261;DHT22;64115;50.170;8.242;2023-05-10T00:29:44;11.60;99.90
8261;DHT22;64115;50.170;8.242;2023-05-10T00:32:13;11.60;99.90
8261;DHT22;64115;50.170;8.242;2023-05-10T00:34:40;11.60;99.90
8261;DHT22;64115;50.170;8.242;2023-05-10T00:37:07;11.60;99.90
8261;DHT22;64115;50.170;8.242;2023-05-10T00:39:36;11.60;99.90
8261;DHT22;64115;50.170;8.242;2023-05-10T00:42:04;11.60;99.90
8261;DHT22;64115;50.170;8.242;2023-05-10T00:44:33;11.60;99.90
8261;DHT22;64115;50.170;8.242;2023-05-10T00:47:11;11.60;99.90
8261;DHT22;64115;50.170;8.242;2023-05-10T00:49:39;11.60;99.90
8261;DHT22;64115;50.170;8.242;2023-05-10T00:52:08;11.60;99.90
8261;DHT22;64115;50.170;8.242;2023-05-10T00:54:35;11.60;99.90
8261;DHT22;64115;50.170;8.242;2023-05-10T00:57:03;11.60;99.90
8261;DHT22;64115;50.170;8.242;2023-05-10T00:59:32;11.60;99.90
8261;DHT22;64115;50.170;8.242;2023-05-10T01:02:00;11.50;99.90
8261;DHT22;64115;50.170;8.242;2023-05-10T01:04:33;11.50;99.90
8261;DHT22;64115;50.170;8.242;2023-05-10T01:07:01;11.40;99.90
8261;DHT22;64115;50.170;8.242;2023-05-10T01:12:50;11.40;99.90
8261;DHT22;64115;50.170;8.242;2023-05-10T01:15:18;11.40;99.90
8261;DHT22;64115;50.170;8.242;2023-05-10T01:17:53;11.30;99.90
8261;DHT22;64115;50.170;8.242;2023-05-10T01:20:24;11.30;99.90
8261;DHT22;64115;50.170;8.242;2023-05-10T01:23:27;11.30;99.90
8261;DHT22;64115;50.170;8.242;2023-05-10T01:29:19;11.30;99.90
8261;DHT22;64115;50.170;8.242;2023-05-10T01:32:19;11.30;99.90
8261;DHT22;64115;50.170;8.242;2023-05-10T01:34:54;11.30;99.90
8261;DHT22;64115;50.170;8.242;2023-05-10T01:37:33;11.30;99.90
8261;DHT22;64115;50.170;8.242;2023-05-10T01:40:10;11.30;99.90
8261;DHT22;64115;50.170;8.242;2023-05-10T01:42:45;11.30;99.90
8261;DHT22;64115;50.170;8.242;2023-05-10T01:45:20;11.30;99.90
8261;DHT22;64115;50.170;8.242;2023-05-10T01:47:58;11.40;99.90
8261;DHT22;64115;50.170;8.242;2023-05-10T01:50:29;11.40;99.90
8261;DHT22;64115;50.170;8.242;2023-05-10T01:53:00;11.30;99.90
8261;DHT22;64115;50.170;8.242;2023-05-10T01:55:32;11.30;99.90
8261;DHT22;64115;50.170;8.242;2023-05-10T01:58:06;11.30;99.90
8261;DHT22;64115;50.170;8.242;2023-05-10T02:00:35;11.30;99.90
8261;DHT22;64115;50.170;8.242;2023-05-10T02:03:09;11.30;99.90
8261;DHT22;64115;50.170;8.242;2023-05-10T02:05:37;11.30;99.90
8261;DHT22;64115;50.170;8.242;2023-05-10T02:08:07;11.30;99.90
8261;DHT22;64115;50.170;8.242;2023-05-10T02:10:35;11.20;99.90
8261;DHT22;64115;50.170;8.242;2023-05-10T02:13:08;11.20;99.90
8261;DHT22;64115;50.170;8.242;2023-05-10T02:15:38;11.20;99.90
8261;DHT22;64115;50.170;8.242;2023-05-10T02:18:09;11.20;99.90
8261;DHT22;64115;50.170;8.242;2023-05-10T02:20:38;11.20;99.90
8261;DHT22;64115;50.170;8.242;2023-05-10T02:23:08;11.20;99.90
8261;DHT22;64115;50.170;8.242;2023-05-10T02:25:36;11.20;99.90
8261;DHT22;64115;50.170;8.242;2023-05-10T02:28:06;11.20;99.90
8261;DHT22;64115;50.170;8.242;2023-05-10T02:30:38;11.10;99.90
8261;DHT22;64115;50.170;8.242;2023-05-10T02:33:09;11.10;99.90
8261;DHT22;64115;50.170;8.242;2023-05-10T02:35:38;11.00;99.90
8261;DHT22;64115;50.170;8.242;2023-05-10T02:38:06;11.00;99.90
8261;DHT22;64115;50.170;8.242;2023-05-10T02:40:35;11.00;99.90
8261;DHT22;64115;50.170;8.242;2023-05-10T02:43:10;10.90;99.90
8261;DHT22;64115;50.170;8.242;2023-05-10T02:45:40;10.90;99.90
8261;DHT22;64115;50.170;8.242;2023-05-10T02:48:10;10.90;99.90
8261;DHT22;64115;50.170;8.242;2023-05-10T02:50:38;10.90;99.90
8261;DHT22;64115;50.170;8.242;2023-05-10T02:53:11;10.90;99.90
8261;DHT22;64115;50.170;8.242;2023-05-10T02:55:41;10.90;99.90
8261;DHT22;64115;50.170;8.242;2023-05-10T02:58:09;10.90;99.90
8261;DHT22;64115;50.170;8.242;2023-05-10T03:00:36;10.90;99.90
8261;DHT22;64115;50.170;8.242;2023-05-10T03:03:05;10.90;99.90
8261;DHT22;64115;50.170;8.242;2023-05-10T03:05:36;10.90;99.90
8261;DHT22;64115;50.170;8.242;2023-05-10T03:08:06;10.90;99.90
8261;DHT22;64115;50.170;8.242;2023-05-10T03:10:45;10.90;99.90
8261;DHT22;64115;50.170;8.242;2023-05-10T03:13:25;10.90;99.90
8261;DHT22;64115;50.170;8.242;2023-05-10T03:15:59;11.00;99.90
8261;DHT22;64115;50.170;8.242;2023-05-10T03:18:39;11.00;99.90
8261;DHT22;64115;50.170;8.242;2023-05-10T03:21:28;11.00;99.90
8261;DHT22;64115;50.170;8.242;2023-05-10T03:24:02;11.00;99.90
8261;DHT22;64115;50.170;8.242;2023-05-10T03:26:33;11.00;99.90
8261;DHT22;64115;50.170;8.242;2023-05-10T03:29:02;11.00;99.90
8261;DHT22;64115;50.170;8.242;2023-05-10T03:31:30;11.00;99.90
8261;DHT22;64115;50.170;8.242;2023-05-10T03:34:00;11.00;99.90
8261;DHT22;64115;50.170;8.242;2023-05-10T03:36:29;11.00;99.90
8261;DHT22;64115;50.170;8.242;2023-05-10T03:38:57;11.00;99.90
8261;DHT22;64115;50.170;8.242;2023-05-10T03:41:26;11.10;99.90
8261;DHT22;64115;50.170;8.242;2023-05-10T03:43:55;11.10;99.90
8261;DHT22;64115;50.170;8.242;2023-05-10T03:46:23;11.10;99.90
8261;DHT22;64115;50.170;8.242;2023-05-10T03:48:50;11.10;99.90
8261;DHT22;64115;50.170;8.242;2023-05-10T03:51:17;11.10;99.90
8261;DHT22;64115;50.170;8.242;2023-05-10T03:53:46;11.10;99.90
8261;DHT22;64115;50.170;8.242;2023-05-10T03:56:17;11.10;99.90
8261;DHT22;64115;50.170;8.242;2023-05-10T03:58:44;11.10;99.90
8261;DHT22;64115;50.170;8.242;2023-05-10T04:01:11;11.20;99.90
8261;DHT22;64115;50.170;8.242;2023-05-10T04:03:39;11.20;99.90
8261;DHT22;64115;50.170;8.242;2023-05-10T04:06:06;11.20;99.90
8261;DHT22;64115;50.170;8.242;2023-05-10T04:08:36;11.20;99.90
8261;DHT22;64115;50.170;8.242;2023-05-10T04:11:09;11.20;99.90
8261;DHT22;64115;50.170;8.242;2023-05-10T04:13:40;11.30;99.90
8261;DHT22;64115;50.170;8.242;2023-05-10T04:16:09;11.30;99.90
8261;DHT22;64115;50.170;8.242;2023-05-10T04:18:37;11.30;99.90
8261;DHT22;64115;50.170;8.242;2023-05-10T04:21:11;11.20;99.90
8261;DHT22;64115;50.170;8.242;2023-05-10T04:23:38;11.20;99.90
8261;DHT22;64115;50.170;8.242;2023-05-10T04:26:07;11.20;99.90
8261;DHT22;64115;50.170;8.242;2023-05-10T04:28:35;11.30;99.90
8261;DHT22;64115;50.170;8.242;2023-05-10T04:31:05;11.30;99.90
8261;DHT22;64115;50.170;8.242;2023-05-10T04:33:33;11.30;99.90
8261;DHT22;64115;50.170;8.242;2023-05-10T04:36:01;11.30;99.90
8261;DHT22;64115;50.170;8.242;2023-05-10T04:38:29;11.30;99.90
8261;DHT22;64115;50.170;8.242;2023-05-10T04:41:04;11.30;99.90
8261;DHT22;64115;50.170;8.242;2023-05-10T04:43:35;11.30;99.90
8261;DHT22;64115;50.170;8.242;2023-05-10T04:46:03;11.30;99.90
8261;DHT22;64115;50.170;8.242;2023-05-10T04:48:30;11.30;99.90
8261;DHT22;64115;50.170;8.242;2023-05-10T04:50:57;11.40;99.90
8261;DHT22;64115;50.170;8.242;2023-05-10T04:53:25;11.40;99.90
8261;DHT22;64115;50.170;8.242;2023-05-10T04:55:52;11.40;99.90
8261;DHT22;64115;50.170;8.242;2023-05-10T04:58:19;11.40;99.90
8261;DHT22;64115;50.170;8.242;2023-05-10T05:00:48;11.40;99.90
8261;DHT22;64115;50.170;8.242;2023-05-10T05:03:15;11.40;99.90
8261;DHT22;64115;50.170;8.242;2023-05-10T05:05:43;11.40;99.90
8261;DHT22;64115;50.170;8.242;2023-05-10T05:08:10;11.40;99.90
8261;DHT22;64115;50.170;8.242;2023-05-10T05:10:38;11.40;99.90
8261;DHT22;64115;50.170;8.242;2023-05-10T05:13:06;11.40;99.90
8261;DHT22;64115;50.170;8.242;2023-05-10T05:15:36;11.40;99.90
8261;DHT22;64115;50.170;8.242;2023-05-10T05:18:05;11.40;99.90
8261;DHT22;64115;50.170;8.242;2023-05-10T05:20:32;11.30;99.90
8261;DHT22;64115;50.170;8.242;2023-05-10T05:23:00;11.40;99.90
8261;DHT22;64115;50.170;8.242;2023-05-10T05:25:27;11.30;99.90
8261;DHT22;64115;50.170;8.242;2023-05-10T05:27:55;11.30;99.90
8261;DHT22;64115;50.170;8.242;2023-05-10T05:30:23;11.30;99.90
8261;DHT22;64115;50.170;8.242;2023-05-10T05:32:50;11.30;99.90
8261;DHT22;64115;50.170;8.242;2023-05-10T05:35:21;11.30;99.90
8261;DHT22;64115;50.170;8.242;2023-05-10T05:37:49;11.30;99.90
8261;DHT22;64115;50.170;8.242;2023-05-10T05:40:17;11.30;99.90
8261;DHT22;64115;50.170;8.242;2023-05-10T05:42:44;11.30;99.90
8261;DHT22;64115;50.170;8.242;2023-05-10T05:45:11;11.40;99.90
8261;DHT22;64115;50.170;8.242;2023-05-10T05:47:40;11.40;99.90
8261;DHT22;64115;50.170;8.242;2023-05-10T05:50:10;11.50;99.90
8261;DHT22;64115;50.170;8.242;2023-05-10T05:52:40;11.50;99.90
8261;DHT22;64115;50.170;8.242;2023-05-10T05:55:09;11.60;99.90
8261;DHT22;64115;50.170;8.242;2023-05-10T05:57:39;11.70;99.90
8261;DHT22;64115;50.170;8.242;2023-05-10T06:00:09;11.80;99.90
8261;DHT22;64115;50.170;8.242;2023-05-10T06:02:36;11.80;99.90
8261;DHT22;64115;50.170;8.242;2023-05-10T06:05:05;11.90;99.90
8261;DHT22;64115;50.170;8.242;2023-05-10T06:07:32;12.00;99.90
8261;DHT22;64115;50.170;8.242;2023-05-10T06:10:09;12.10;99.90
8261;DHT22;64115;50.170;8.242;2023-05-10T06:12:38;12.20;99.90
8261;DHT22;64115;50.170;8.242;2023-05-10T06:15:10;12.20;99.90
8261;DHT22;64115;50.170;8.242;2023-05-10T07:36:08;13.00;99.90
8261;DHT22;64115;50.170;8.242;2023-05-10T07:39:05;13.00;99.90
8261;DHT22;64115;50.170;8.242;2023-05-10T07:45:10;13.00;99.90
8261;DHT22;64115;50.170;8.242;2023-05-10T07:48:00;13.10;99.90
8261;DHT22;64115;50.170;8.242;2023-05-10T07:50:58;13.30;99.90
8261;DHT22;64115;50.170;8.242;2023-05-10T09:18:47;16.50;99.90
8261;DHT22;64115;50.170;8.242;2023-05-10T09:21:59;16.90;99.90
8261;DHT22;64115;50.170;8.242;2023-05-10T09:24:44;17.10;99.90
8261;DHT22;64115;50.170;8.242;2023-05-10T09:34:33;16.70;99.90
8261;DHT22;64115;50.170;8.242;2023-05-10T09:37:08;16.40;99.90
8261;DHT22;64115;50.170;8.242;2023-05-10T09:43:37;15.60;99.90
8261;DHT22;64115;50.170;8.242;2023-05-10T09:46:28;15.80;99.90
8261;DHT22;64115;50.170;8.242;2023-05-10T09:49:03;16.00;99.90
8261;DHT22;64115;50.170;8.242;2023-05-10T10:17:41;17.00;99.90
8261;DHT22;64115;50.170;8.242;2023-05-10T10:20:35;17.40;99.90
8261;DHT22;64115;50.170;8.242;2023-05-10T10:23:11;17.30;99.90
8261;DHT22;64115;50.170;8.242;2023-05-10T10:34:40;17.30;99.90
8261;DHT22;64115;50.170;8.242;2023-05-10T10:37:55;17.00;99.90
8261;DHT22;64115;50.170;8.242;2023-05-10T10:47:41;15.70;99.90
8261;DHT22;64115;50.170;8.242;2023-05-10T10:50:28;15.60;99.90
8261;DHT22;64115;50.170;8.242;2023-05-10T10:56:31;16.40;99.90
8261;DHT22;64115;50.170;8.242;2023-05-10T10:59:33;16.70;99.90
8261;DHT22;64115;50.170;8.242;2023-05-10T11:08:45;17.00;99.90
8261;DHT22;64115;50.170;8.242;2023-05-10T11:11:19;17.30;99.90
8261;DHT22;64115;50.170;8.242;2023-05-10T11:13:51;17.40;99.90
8261;DHT22;64115;50.170;8.242;2023-05-10T11:16:21;17.40;99.90
8261;DHT22;64115;50.170;8.242;2023-05-10T11:19:26;17.60;99.90
8261;DHT22;64115;50.170;8.242;2023-05-10T11:56:35;17.70;99.90
8261;DHT22;64115;50.170;8.242;2023-05-10T11:59:42;17.50;99.90
8261;DHT22;64115;50.170;8.242;2023-05-10T13:00:12;16.80;99.90
8261;DHT22;64115;50.170;8.242;2023-05-10T13:02:59;16.40;99.90
8261;DHT22;64115;50.170;8.242;2023-05-10T13:05:43;16.00;99.90
8261;DHT22;64115;50.170;8.242;2023-05-10T13:08:22;15.60;99.90
8261;DHT22;64115;50.170;8.242;2023-05-10T13:10:53;15.50;99.90
8261;DHT22;64115;50.170;8.242;2023-05-10T13:13:22;15.50;99.90
8261;DHT22;64115;50.170;8.242;2023-05-10T13:15:59;15.50;99.90
8261;DHT22;64115;50.170;8.242;2023-05-10T13:18:26;15.40;99.90
8261;DHT22;64115;50.170;8.242;2023-05-10T13:20:54;15.40;99.90
8261;DHT22;64115;50.170;8.242;2023-05-10T13:23:37;15.50;99.90
8261;DHT22;64115;50.170;8.242;2023-05-10T13:26:05;15.60;99.90
8261;DHT22;64115;50.170;8.242;2023-05-10T13:29:07;15.90;99.90
8261;DHT22;64115;50.170;8.242;2023-05-10T13:34:44;16.60;99.90
8261;DHT22;64115;50.170;8.242;2023-05-10T13:37:13;16.90;99.90
8261;DHT22;64115;50.170;8.242;2023-05-10T13:39:45;17.10;99.90
8261;DHT22;64115;50.170;8.242;2023-05-10T13:42:17;17.40;99.90
8261;DHT22;64115;50.170;8.242;2023-05-10T14:02:57;17.90;99.90
8261;DHT22;64115;50.170;8.242;2023-05-10T14:31:49;17.60;99.90
8261;DHT22;64115;50.170;8.242;2023-05-10T14:34:24;17.70;99.90
8261;DHT22;64115;50.170;8.242;2023-05-10T14:36:53;17.80;99.90
8261;DHT22;64115;50.170;8.242;2023-05-10T14:39:30;17.60;99.90
8261;DHT22;64115;50.170;8.242;2023-05-10T16:20:14;16.00;99.90
8261;DHT22;64115;50.170;8.242;2023-05-10T16:22:43;16.10;99.90
8261;DHT22;64115;50.170;8.242;2023-05-10T16:25:58;16.20;99.90
8261;DHT22;64115;50.170;8.242;2023-05-10T16:28:32;16.30;99.90
8261;DHT22;64115;50.170;8.242;2023-05-10T16:31:00;16.30;99.90
8261;DHT22;64115;50.170;8.242;2023-05-10T16:34:04;16.20;99.90
8261;DHT22;64115;50.170;8.242;2023-05-10T16:49:56;15.30;99.90
8261;DHT22;64115;50.170;8.242;2023-05-10T16:52:25;15.30;99.90
8261;DHT22;64115;50.170;8.242;2023-05-10T16:54:57;15.20;99.90
8261;DHT22;64115;50.170;8.242;2023-05-10T16:57:27;15.20;99.90
8261;DHT22;64115;50.170;8.242;2023-05-10T16:59:54;15.20;99.90
8261;DHT22;64115;50.170;8.242;2023-05-10T17:02:21;15.10;99.90
8261;DHT22;64115;50.170;8.242;2023-05-10T17:05:12;15.10;99.90
8261;DHT22;64115;50.170;8.242;2023-05-10T17:07:50;15.10;99.90
8261;DHT22;64115;50.170;8.242;2023-05-10T17:10:38;15.00;99.90
8261;DHT22;64115;50.170;8.242;2023-05-10T17:13:18;15.00;99.90
8261;DHT22;64115;50.170;8.242;2023-05-10T17:19:32;14.90;99.90
8261;DHT22;64115;50.170;8.242;2023-05-10T17:25:29;14.90;99.90
8261;DHT22;64115;50.170;8.242;2023-05-10T17:28:15;14.90;99.90
8261;DHT22;64115;50.170;8.242;2023-05-10T17:30:58;14.90;99.90
8261;DHT22;64115;50.170;8.242;2023-05-10T17:34:05;14.90;99.90
8261;DHT22;64115;50.170;8.242;2023-05-10T17:36:38;14.90;99.90
8261;DHT22;64115;50.170;8.242;2023-05-10T17:39:10;15.00;99.90
8261;DHT22;64115;50.170;8.242;2023-05-10T17:41:59;15.00;99.90
8261;DHT22;64115;50.170;8.242;2023-05-10T17:44:30;15.00;99.90
8261;DHT22;64115;50.170;8.242;2023-05-10T17:46:58;15.10;99.90
8261;DHT22;64115;50.170;8.242;2023-05-10T17:49:30;15.00;99.90
8261;DHT22;64115;50.170;8.242;2023-05-10T17:51:59;15.00;99.90
8261;DHT22;64115;50.170;8.242;2023-05-10T17:58:05;14.90;99.90
8261;DHT22;64115;50.170;8.242;2023-05-10T18:00:36;14.80;99.90
8261;DHT22;64115;50.170;8.242;2023-05-10T18:03:36;14.70;99.90
8261;DHT22;64115;50.170;8.242;2023-05-10T18:06:06;14.60;99.90
8261;DHT22;64115;50.170;8.242;2023-05-10T18:08:47;14.60;99.90
8261;DHT22;64115;50.170;8.242;2023-05-10T18:11:20;14.40;99.90
8261;DHT22;64115;50.170;8.242;2023-05-10T18:13:49;14.20;99.90
8261;DHT22;64115;50.170;8.242;2023-05-10T18:16:56;14.10;99.90
8261;DHT22;64115;50.170;8.242;2023-05-10T18:19:37;14.00;99.90
8261;DHT22;64115;50.170;8.242;2023-05-10T18:22:04;13.80;99.90
8261;DHT22;64115;50.170;8.242;2023-05-10T18:24:31;13.70;99.90
8261;DHT22;64115;50.170;8.242;2023-05-10T18:26:58;13.60;99.90
8261;DHT22;64115;50.170;8.242;2023-05-10T18:36:09;13.20;99.90
8261;DHT22;64115;50.170;8.242;2023-05-10T18:38:37;13.10;99.90
8261;DHT22;64115;50.170;8.242;2023-05-10T18:41:05;13.10;99.90
8261;DHT22;64115;50.170;8.242;2023-05-10T18:43:34;13.00;99.90
8261;DHT22;64115;50.170;8.242;2023-05-10T18:46:01;12.90;99.90
8261;DHT22;64115;50.170;8.242;2023-05-10T18:48:28;12.90;99.90
8261;DHT22;64115;50.170;8.242;2023-05-10T18:50:56;12.90;99.90
8261;DHT22;64115;50.170;8.242;2023-05-10T18:53:25;12.90;99.90
8261;DHT22;64115;50.170;8.242;2023-05-10T18:55:55;12.90;99.90
8261;DHT22;64115;50.170;8.242;2023-05-10T18:58:23;12.70;99.90
8261;DHT22;64115;50.170;8.242;2023-05-10T19:00:51;12.70;99.90
8261;DHT22;64115;50.170;8.242;2023-05-10T19:03:20;12.60;99.90
8261;DHT22;64115;50.170;8.242;2023-05-10T19:05:51;12.50;99.90
8261;DHT22;64115;50.170;8.242;2023-05-10T19:08:18;12.50;99.90
8261;DHT22;64115;50.170;8.242;2023-05-10T19:10:48;12.50;99.90
8261;DHT22;64115;50.170;8.242;2023-05-10T19:13:15;12.40;99.90
8261;DHT22;64115;50.170;8.242;2023-05-10T19:15:43;12.30;99.90
8261;DHT22;64115;50.170;8.242;2023-05-10T19:18:14;12.30;99.90
8261;DHT22;64115;50.170;8.242;2023-05-10T19:20:42;12.20;99.90
8261;DHT22;64115;50.170;8.242;2023-05-10T19:23:09;12.20;99.90
8261;DHT22;64115;50.170;8.242;2023-05-10T19:25:37;12.20;99.90
8261;DHT22;64115;50.170;8.242;2023-05-10T19:28:08;12.10;99.90
8261;DHT22;64115;50.170;8.242;2023-05-10T19:30:49;12.00;99.90
8261;DHT22;64115;50.170;8.242;2023-05-10T19:33:16;11.90;99.90
8261;DHT22;64115;50.170;8.242;2023-05-10T19:35:45;11.90;99.90
8261;DHT22;64115;50.170;8.242;2023-05-10T19:38:12;11.80;99.90
8261;DHT22;64115;50.170;8.242;2023-05-10T19:40:40;11.90;99.90
8261;DHT22;64115;50.170;8.242;2023-05-10T19:43:17;11.90;99.90
8261;DHT22;64115;50.170;8.242;2023-05-10T19:45:45;12.00;99.90
8261;DHT22;64115;50.170;8.242;2023-05-10T19:48:13;12.00;99.90
8261;DHT22;64115;50.170;8.242;2023-05-10T19:50:40;12.00;99.90
8261;DHT22;64115;50.170;8.242;2023-05-10T19:53:08;11.90;99.90
8261;DHT22;64115;50.170;8.242;2023-05-10T19:55:35;11.90;99.90
8261;DHT22;64115;50.170;8.242;2023-05-10T19:58:03;11.80;99.90
8261;DHT22;64115;50.170;8.242;2023-05-10T20:00:32;11.60;99.90
8261;DHT22;64115;50.170;8.242;2023-05-10T20:03:01;11.60;99.90
8261;DHT22;64115;50.170;8.242;2023-05-10T20:05:30;11.60;99.90
8261;DHT22;64115;50.170;8.242;2023-05-10T20:07:57;11.50;99.90
8261;DHT22;64115;50.170;8.242;2023-05-10T20:10:24;11.50;99.90
8261;DHT22;64115;50.170;8.242;2023-05-10T20:12:52;11.30;99.90
8261;DHT22;64115;50.170;8.242;2023-05-10T20:15:21;11.20;99.90
8261;DHT22;64115;50.170;8.242;2023-05-10T20:17:50;11.20;99.90
8261;DHT22;64115;50.170;8.242;2023-05-10T20:20:18;11.10;99.90
8261;DHT22;64115;50.170;8.242;2023-05-10T20:22:45;11.10;99.90
8261;DHT22;64115;50.170;8.242;2023-05-10T20:25:14;11.20;99.90
8261;DHT22;64115;50.170;8.242;2023-05-10T20:27:42;11.20;99.90
8261;DHT22;64115;50.170;8.242;2023-05-10T20:30:10;11.20;99.90
8261;DHT22;64115;50.170;8.242;2023-05-10T20:32:38;11.30;99.90
8261;DHT22;64115;50.170;8.242;2023-05-10T20:35:10;11.30;99.90
8261;DHT22;64115;50.170;8.242;2023-05-10T20:37:38;11.30;99.90
8261;DHT22;64115;50.170;8.242;2023-05-10T20:40:06;11.30;99.90
8261;DHT22;64115;50.170;8.242;2023-05-10T20:42:33;11.20;99.90
8261;DHT22;64115;50.170;8.242;2023-05-10T20:45:01;11.00;99.90
8261;DHT22;64115;50.170;8.242;2023-05-10T20:47:29;11.00;99.90
8261;DHT22;64115;50.170;8.242;2023-05-10T20:49:57;11.10;99.90
8261;DHT22;64115;50.170;8.242;2023-05-10T20:52:25;11.10;99.90
8261;DHT22;64115;50.170;8.242;2023-05-10T20:54:53;11.10;99.90
8261;DHT22;64115;50.170;8.242;2023-05-10T20:57:20;11.00;99.90
8261;DHT22;64115;50.170;8.242;2023-05-10T20:59:48;11.00;99.90
8261;DHT22;64115;50.170;8.242;2023-05-10T21:02:15;11.00;99.90
8261;DHT22;64115;50.170;8.242;2023-05-10T21:04:42;10.90;99.90
8261;DHT22;64115;50.170;8.242;2023-05-10T21:07:10;10.80;99.90
8261;DHT22;64115;50.170;8.242;2023-05-10T21:09:40;10.80;99.90
8261;DHT22;64115;50.170;8.242;2023-05-10T21:12:07;10.80;99.90
8261;DHT22;64115;50.170;8.242;2023-05-10T21:14:35;10.60;99.90
8261;DHT22;64115;50.170;8.242;2023-05-10T21:17:02;10.60;99.90
8261;DHT22;64115;50.170;8.242;2023-05-10T21:19:29;10.50;99.90
8261;DHT22;64115;50.170;8.242;2023-05-10T21:21:56;10.50;99.90
8261;DHT22;64115;50.170;8.242;2023-05-10T21:24:24;10.50;99.90
8261;DHT22;64115;50.170;8.242;2023-05-10T21:26:52;10.40;99.90
8261;DHT22;64115;50.170;8.242;2023-05-10T21:29:19;10.40;99.90
8261;DHT22;64115;50.170;8.242;2023-05-10T21:31:47;10.40;99.90
8261;DHT22;64115;50.170;8.242;2023-05-10T21:34:14;10.20;99.90
8261;DHT22;64115;50.170;8.242;2023-05-10T21:36:42;10.20;99.90
8261;DHT22;64115;50.170;8.242;2023-05-10T21:39:10;10.20;99.90
8261;DHT22;64115;50.170;8.242;2023-05-10T21:41:37;10.20;99.90
8261;DHT22;64115;50.170;8.242;2023-05-10T21:44:06;10.10;99.90
8261;DHT22;64115;50.170;8.242;2023-05-10T21:46:33;10.10;99.90
8261;DHT22;64115;50.170;8.242;2023-05-10T21:49:00;10.10;99.90
8261;DHT22;64115;50.170;8.242;2023-05-10T21:51:27;10.10;99.90
8261;DHT22;64115;50.170;8.242;2023-05-10T21:53:55;10.20;99.90
8261;DHT22;64115;50.170;8.242;2023-05-10T21:56:22;10.20;99.90
8261;DHT22;64115;50.170;8.242;2023-05-10T21:58:51;10.20;99.90
8261;DHT22;64115;50.170;8.242;2023-05-10T22:01:20;10.20;99.90
8261;DHT22;64115;50.170;8.242;2023-05-10T22:03:47;10.20;99.90
8261;DHT22;64115;50.170;8.242;2023-05-10T22:06:14;10.20;99.90
8261;DHT22;64115;50.170;8.242;2023-05-10T22:08:42;10.30;99.90
8261;DHT22;64115;50.170;8.242;2023-05-10T22:11:09;10.30;99.90
8261;DHT22;64115;50.170;8.242;2023-05-10T22:13:36;10.20;99.90
8261;DHT22;64115;50.170;8.242;2023-05-10T22:16:05;10.10;99.90
8261;DHT22;64115;50.170;8.242;2023-05-10T22:18:34;10.00;99.90
8261;DHT22;64115;50.170;8.242;2023-05-10T22:21:01;10.10;99.90
8261;DHT22;64115;50.170;8.242;2023-05-10T22:23:28;10.10;99.90
8261;DHT22;64115;50.170;8.242;2023-05-10T22:25:59;10.00;99.90
8261;DHT22;64115;50.170;8.242;2023-05-10T22:28:27;9.90;99.90
8261;DHT22;64115;50.170;8.242;2023-05-10T22:30:54;9.80;99.90
8261;DHT22;64115;50.170;8.242;2023-05-10T22:33:22;9.80;99.90
8261;DHT22;64115;50.170;8.242;2023-05-10T22:35:50;9.60;99.90
8261;DHT22;64115;50.170;8.242;2023-05-10T22:38:18;9.50;99.90
8261;DHT22;64115;50.170;8.242;2023-05-10T22:40:45;9.40;99.90
8261;DHT22;64115;50.170;8.242;2023-05-10T22:43:12;9.40;99.90
8261;DHT22;64115;50.170;8.242;2023-05-10T22:45:39;9.30;99.90
8261;DHT22;64115;50.170;8.242;2023-05-10T22:48:07;9.40;99.90
8261;DHT22;64115;50.170;8.242;2023-05-10T22:50:34;9.30;99.90
8261;DHT22;64115;50.170;8.242;2023-05-10T22:53:04;9.20;99.90
8261;DHT22;64115;50.170;8.242;2023-05-10T22:55:31;9.20;99.90
8261;DHT22;64115;50.170;8.242;2023-05-10T22:57:58;9.20;99.90
8261;DHT22;64115;50.170;8.242;2023-05-10T23:00:25;9.20;99.90
8261;DHT22;64115;50.170;8.242;2023-05-10T23:02:53;9.20;99.90
8261;DHT22;64115;50.170;8.242;2023-05-10T23:05:20;9.20;99.90
8261;DHT22;64115;50.170;8.242;2023-05-10T23:07:47;9.10;99.90
8261;DHT22;64115;50.170;8.242;2023-05-10T23:10:19;9.10;99.90
8261;DHT22;64115;50.170;8.242;2023-05-10T23:12:46;9.10;99.90
8261;DHT22;64115;50.170;8.242;2023-05-10T23:15:14;9.10;99.90
8261;DHT22;64115;50.170;8.242;2023-05-10T23:17:41;9.10;99.90
8261;DHT22;64115;50.170;8.242;2023-05-10T23:20:09;9.00;99.90
8261;DHT22;64115;50.170;8.242;2023-05-10T23:22:37;9.10;99.90
8261;DHT22;64115;50.170;8.242;2023-05-10T23:25:06;9.00;99.90
8261;DHT22;64115;50.170;8.242;2023-05-10T23:27:35;9.00;99.90
8261;DHT22;64115;50.170;8.242;2023-05-10T23:30:02;9.10;99.90
8261;DHT22;64115;50.170;8.242;2023-05-10T23:32:29;9.10;99.90
8261;DHT22;64115;50.170;8.242;2023-05-10T23:34:57;9.20;99.90
8261;DHT22;64115;50.170;8.242;2023-05-10T23:37:24;9.30;99.90
8261;DHT22;64115;50.170;8.242;2023-05-10T23:39:55;9.30;99.90
8261;DHT22;64115;50.170;8.242;2023-05-10T23:42:22;9.30;99.90
8261;DHT22;64115;50.170;8.242;2023-05-10T23:44:51;9.30;99.90
8261;DHT22;64115;50.170;8.242;2023-05-10T23:47:18;9.30;99.90
8261;DHT22;64115;50.170;8.242;2023-05-10T23:49:46;9.30;99.90
8261;DHT22;64115;50.170;8.242;2023-05-10T23:52:13;9.40;99.90
8261;DHT22;64115;50.170;8.242;2023-05-10T23:54:40;9.50;99.90
8261;DHT22;64115;50.170;8.242;2023-05-10T23:57:07;9.40;99.90
8261;DHT22;64115;50.170;8.242;2023-05-10T23:59:34;9.30;99.90
